Time;durP1;ratioP1;P1;durP2;ratioP2;P2;SDS_P1;SDS_P2;PMS_P1;PMS_P2;Temp;Humidity;BMP_temperature;BMP_pressure;BME280_temperature;BME280_humidity;BME280_pressure;Samples;Min_cycle;Max_cycle;Signal;HPM_P1;HPM_P2
2023/09/20 04:22:36;;;;;;;2.67;1.45;;;;;;;12.47;100.00;99984.59;5109601;27;20644;-68
2023/09/20 04:25:04;;;;;;;4.78;1.90;;;;;;;12.47;100.00;99980.06;5108583;28;20028;-68
2023/09/20 04:27:32;;;;;;;4.43;2.30;;;;;;;12.46;100.00;99981.09;5089465;28;20040;-68
2023/09/20 04:29:57;;;;;;;3.40;1.95;;;;;;;12.41;100.00;99975.50;5088044;28;20039;-68
2023/09/20 04:32:23;;;;;;;5.40;1.80;;;;;;;12.47;100.00;99979.25;5087779;28;20121;-68
2023/09/20 04:34:53;;;;;;;2.85;1.73;;;;;;;12.47;100.00;99980.06;5105061;28;20028;-68
2023/09/20 04:37:22;;;;;;;2.20;1.65;;;;;;;12.53;100.00;99973.16;5104691;28;20528;-68
2023/09/20 04:39:49;;;;;;;1.95;1.65;;;;;;;12.50;100.00;99960.97;5087922;28;20495;-67
2023/09/20 04:42:15;;;;;;;2.35;1.50;;;;;;;12.52;100.00;99962.63;5087475;28;20391;-67
2023/09/20 04:44:41;;;;;;;2.67;1.50;;;;;;;12.40;100.00;99965.00;5121707;27;20036;-67
2023/09/20 04:47:07;;;;;;;2.42;1.50;;;;;;;12.44;100.00;99963.59;5121779;27;20086;-66
2023/09/20 04:49:33;;;;;;;2.50;2.00;;;;;;;12.42;100.00;99961.13;5104770;28;20036;-66
2023/09/20 04:52:00;;;;;;;4.40;2.40;;;;;;;12.45;100.00;99965.25;5104693;28;20025;-67
2023/09/20 04:54:29;;;;;;;5.37;3.60;;;;;;;12.41;100.00;99964.00;5104354;28;20028;-67
2023/09/20 04:56:54;;;;;;;2.55;2.00;;;;;;;12.37;100.00;99968.06;5087427;28;20037;-67
2023/09/20 04:59:20;;;;;;;3.47;2.70;;;;;;;12.32;100.00;99965.94;5087824;28;20098;-67
2023/09/20 05:01:49;;;;;;;6.88;4.88;;;;;;;12.37;100.00;99968.88;5121501;27;20131;-67
2023/09/20 05:04:15;;;;;;;4.10;2.88;;;;;;;12.35;100.00;99964.75;5088553;28;20043;-67
2023/09/20 05:06:42;;;;;;;3.33;2.20;;;;;;;12.38;100.00;99967.03;5088568;28;20028;-67
2023/09/20 05:09:08;;;;;;;4.55;2.75;;;;;;;12.41;100.00;99966.66;5104317;28;20032;-68
2023/09/20 05:11:34;;;;;;;4.03;2.45;;;;;;;12.37;100.00;99968.06;5087208;28;20111;-67
2023/09/20 05:14:00;;;;;;;2.95;1.80;;;;;;;12.35;100.00;99962.09;5087033;28;20032;-67
2023/09/20 05:16:26;;;;;;;4.10;2.00;;;;;;;12.33;100.00;99964.94;5104068;28;20040;-67
2023/09/20 05:18:52;;;;;;;3.33;1.92;;;;;;;12.25;100.00;99969.56;5088435;27;20090;-67
2023/09/20 05:21:17;;;;;;;4.05;1.95;;;;;;;12.31;100.00;99960.81;5088153;28;20037;-67
2023/09/20 05:23:42;;;;;;;2.53;1.77;;;;;;;12.25;100.00;99962.38;5120895;27;20036;-67
2023/09/20 05:26:08;;;;;;;2.92;1.80;;;;;;;12.26;100.00;99972.09;5088228;28;20498;-67
2023/09/20 05:28:35;;;;;;;5.20;2.45;;;;;;;12.32;100.00;99973.13;5088323;28;20032;-67
2023/09/20 05:31:05;;;;;;;5.15;2.13;;;;;;;12.30;100.00;99972.50;5088288;28;20036;-66
2023/09/20 05:33:30;;;;;;;2.58;1.90;;;;;;;12.35;100.00;99970.09;5076688;28;20040;-67
2023/09/20 05:35:57;;;;;;;3.00;2.33;;;;;;;12.34;100.00;99965.78;5074555;28;20047;-67
2023/09/20 05:38:24;;;;;;;3.53;1.70;;;;;;;12.32;100.00;99975.81;5074687;28;20041;-67
2023/09/20 05:40:50;;;;;;;3.78;1.70;;;;;;;12.37;100.00;99970.72;5074446;28;20499;-67
2023/09/20 05:43:16;;;;;;;2.80;1.70;;;;;;;12.38;100.00;99972.38;5074209;28;20126;-67
2023/09/20 05:45:42;;;;;;;3.58;2.00;;;;;;;12.40;100.00;99970.34;5074480;28;20044;-66
2023/09/20 05:48:09;;;;;;;2.50;1.60;;;;;;;12.39;100.00;99971.38;5074495;28;20600;-67
2023/09/20 05:50:34;;;;;;;3.45;1.70;;;;;;;12.49;100.00;99974.53;5074450;28;20380;-67
2023/09/20 05:53:01;;;;;;;4.38;1.80;;;;;;;12.54;100.00;99977.47;5074061;28;20044;-67
2023/09/20 05:55:31;;;;;;;3.58;1.60;;;;;;;12.58;100.00;99980.56;5089808;28;20059;-67
2023/09/20 05:57:57;;;;;;;3.40;1.77;;;;;;;12.64;100.00;99969.94;5074298;28;20037;-67
2023/09/20 06:00:22;;;;;;;5.95;2.17;;;;;;;12.70;100.00;99974.50;5089739;28;20136;-66
2023/09/20 06:02:51;;;;;;;7.22;2.70;;;;;;;12.76;100.00;99973.72;5073894;28;20047;-66
2023/09/20 06:05:18;;;;;;;2.60;2.00;;;;;;;12.83;100.00;99981.78;5074015;28;20130;-67
2023/09/20 06:07:45;;;;;;;3.22;2.00;;;;;;;12.84;100.00;99986.13;5074043;28;20040;-67
2023/09/20 06:10:11;;;;;;;3.33;1.70;;;;;;;12.89;100.00;99985.53;5073874;28;20094;-67
2023/09/20 06:12:37;;;;;;;3.67;1.90;;;;;;;12.96;100.00;99989.09;5073728;28;20081;-67
2023/09/20 06:15:04;;;;;;;4.18;1.67;;;;;;;12.96;100.00;99989.91;5073958;28;20027;-67
2023/09/20 06:17:32;;;;;;;2.35;1.75;;;;;;;13.01;100.00;99984.00;5073804;28;20041;-67
2023/09/20 06:20:01;;;;;;;2.45;1.83;;;;;;;12.98;100.00;99981.72;5073897;28;20109;-67
2023/09/20 06:22:28;;;;;;;2.55;1.63;;;;;;;13.04;100.00;99983.63;5073410;28;20043;-67
2023/09/20 06:24:56;;;;;;;2.65;1.80;;;;;;;13.05;100.00;99982.59;5073778;28;20048;-67
2023/09/20 06:27:22;;;;;;;3.00;1.73;;;;;;;13.08;100.00;99971.50;5073745;28;20388;-67
2023/09/20 06:29:47;;;;;;;2.45;1.40;;;;;;;13.12;100.00;99980.78;5073596;28;20051;-67
2023/09/20 06:32:15;;;;;;;2.53;2.00;;;;;;;13.15;100.00;99983.06;5073367;28;20127;-67
2023/09/20 06:34:41;;;;;;;4.65;1.95;;;;;;;13.19;100.00;99978.16;5073489;28;20547;-67
2023/09/20 06:37:07;;;;;;;4.05;1.90;;;;;;;13.25;100.00;99982.75;5073374;28;20040;-67
2023/09/20 06:39:35;;;;;;;4.25;1.85;;;;;;;13.27;100.00;99973.50;5073647;28;20032;-67
2023/09/20 06:42:01;;;;;;;3.90;1.90;;;;;;;13.30;100.00;99983.81;5073300;28;20075;-67
2023/09/20 06:44:27;;;;;;;3.83;2.03;;;;;;;13.36;100.00;99976.00;5087703;28;20166;-67
2023/09/20 06:46:53;;;;;;;5.22;2.13;;;;;;;13.38;100.00;99976.66;5073231;28;20546;-67
2023/09/20 06:49:18;;;;;;;3.47;2.00;;;;;;;13.46;100.00;99984.50;5073152;28;20040;-67
2023/09/20 06:51:44;;;;;;;3.53;2.15;;;;;;;13.53;100.00;99986.19;5072830;28;20040;-67
2023/09/20 06:54:10;;;;;;;4.05;2.42;;;;;;;13.62;100.00;99978.78;5072888;28;20113;-67
2023/09/20 06:56:35;;;;;;;4.40;2.50;;;;;;;13.70;100.00;99983.19;5073019;28;20171;-67
2023/09/20 06:59:01;;;;;;;4.05;2.45;;;;;;;13.79;100.00;99979.28;5073073;28;20060;-67
2023/09/20 07:01:27;;;;;;;4.20;2.33;;;;;;;13.89;100.00;99977.06;5072973;28;20032;-68
2023/09/20 07:03:52;;;;;;;3.58;2.22;;;;;;;13.96;100.00;99971.75;5072739;28;20059;-67
2023/09/20 07:06:18;;;;;;;5.57;2.25;;;;;;;14.03;100.00;99970.72;5072774;28;20040;-67
2023/09/20 07:08:45;;;;;;;4.05;2.67;;;;;;;14.11;100.00;99967.03;5072817;28;20086;-67
2023/09/20 07:11:13;;;;;;;3.00;2.10;;;;;;;14.18;100.00;99975.91;5072805;28;20712;-67
2023/09/20 07:13:38;;;;;;;4.82;2.03;;;;;;;14.29;100.00;99967.28;5072512;28;20036;-67
2023/09/20 07:16:06;;;;;;;3.40;2.00;;;;;;;14.43;100.00;99964.59;5072625;28;20044;-67
2023/09/20 07:18:32;;;;;;;3.53;2.00;;;;;;;14.56;100.00;99953.91;5072655;28;20060;-67
2023/09/20 07:20:58;;;;;;;3.50;2.10;;;;;;;14.66;100.00;99965.03;5072538;28;20463;-67
2023/09/20 07:23:23;;;;;;;3.22;1.80;;;;;;;14.76;100.00;99960.09;5072438;28;20452;-67
2023/09/20 07:25:49;;;;;;;4.25;2.00;;;;;;;14.89;100.00;99970.00;5072453;28;20072;-67
2023/09/20 07:28:16;;;;;;;5.78;2.00;;;;;;;14.97;100.00;99968.94;5072486;28;20074;-67
2023/09/20 07:30:44;;;;;;;4.20;1.90;;;;;;;15.09;100.00;99976.16;5072432;28;20058;-67
2023/09/20 07:33:14;;;;;;;3.85;2.15;;;;;;;15.24;100.00;99972.41;5072120;28;20453;-67
2023/09/20 07:35:53;;;;;;;4.38;2.30;;;;;;;15.32;100.00;99967.66;5072279;28;20491;-67
2023/09/20 07:38:25;;;;;;;3.92;1.92;;;;;;;15.34;100.00;99962.88;5072307;28;20056;-68
2023/09/20 07:40:51;;;;;;;5.07;1.70;;;;;;;15.43;100.00;99971.53;5072386;28;20116;-67
2023/09/20 07:43:18;;;;;;;3.33;2.00;;;;;;;15.48;100.00;99967.16;5072008;28;20040;-67
2023/09/20 07:45:44;;;;;;;2.97;2.10;;;;;;;15.56;100.00;99965.28;5072461;28;20078;-67
2023/09/20 07:48:12;;;;;;;3.13;1.80;;;;;;;15.62;100.00;99967.97;5072201;28;20107;-67
2023/09/20 07:50:40;;;;;;;3.20;1.95;;;;;;;15.66;100.00;99966.53;5072257;28;20047;-67
2023/09/20 07:53:10;;;;;;;4.03;1.77;;;;;;;15.73;100.00;99971.88;5071917;28;20039;-68
2023/09/20 07:55:45;;;;;;;3.40;2.03;;;;;;;15.82;100.00;99975.94;5071888;28;20106;-68
2023/09/20 07:58:15;;;;;;;2.92;1.60;;;;;;;15.92;100.00;99970.13;5072080;28;20040;-67
2023/09/20 08:00:44;;;;;;;3.10;1.60;;;;;;;15.98;100.00;99972.78;5071992;28;20058;-68
2023/09/20 08:03:12;;;;;;;3.95;1.95;;;;;;;16.10;100.00;99974.75;5071670;28;20084;-68
2023/09/20 08:05:39;;;;;;;2.65;1.88;;;;;;;16.18;100.00;99967.28;5071949;28;20040;-68
2023/09/20 08:08:06;;;;;;;3.65;1.85;;;;;;;16.26;100.00;99964.34;5071964;28;20056;-67
2023/09/20 08:10:33;;;;;;;4.63;1.90;;;;;;;16.37;100.00;99959.31;5071996;28;20123;-67
2023/09/20 08:12:59;;;;;;;3.15;2.00;;;;;;;16.46;100.00;99963.38;5071616;28;20033;-68
2023/09/20 08:15:24;;;;;;;5.28;1.90;;;;;;;16.59;100.00;99970.50;5071759;28;20036;-67
2023/09/20 08:20:37;;;;;;;2.95;1.58;;;;;;;16.77;100.00;99955.28;5071691;28;20044;-67
2023/09/20 09:01:32;;;;;;;3.63;2.03;;;;;;;18.03;92.10;99956.56;5069468;28;20403;-67
2023/09/20 09:04:01;;;;;;;3.90;1.95;;;;;;;18.22;92.70;99954.63;5070988;28;20020;-68
2023/09/20 09:06:27;;;;;;;4.00;1.60;;;;;;;18.39;93.92;99944.84;5069874;28;20040;-62
2023/09/20 09:08:52;;;;;;;3.38;1.48;;;;;;;18.82;91.99;99945.59;5073303;28;20469;-61
2023/09/20 09:11:18;;;;;;;3.88;1.38;;;;;;;18.84;86.33;99948.88;5075187;28;20036;-64
2023/09/20 09:13:43;;;;;;;2.03;1.20;;;;;;;18.94;87.66;99947.25;5073391;28;20461;-63
2023/09/20 09:16:09;;;;;;;3.25;1.60;;;;;;;19.08;88.00;99947.81;5077795;28;20483;-62
2023/09/20 09:18:34;;;;;;;3.25;1.60;;;;;;;19.39;85.28;99945.78;5073964;28;20043;-63
2023/09/20 09:21:00;;;;;;;3.55;1.63;;;;;;;19.64;82.60;99950.94;5073782;28;20055;-63
2023/09/20 09:23:35;;;;;;;4.22;1.75;;;;;;;19.82;84.59;99939.09;5072873;28;20404;-62
2023/09/20 09:26:01;;;;;;;2.60;1.40;;;;;;;20.02;84.67;99942.22;5073695;28;20119;-67
2023/09/20 09:28:26;;;;;;;2.55;1.85;;;;;;;20.22;81.00;99939.88;5073596;28;20041;-66
2023/09/20 09:30:54;;;;;;;3.58;1.55;;;;;;;20.44;78.76;99925.63;5076218;28;20135;-64
2023/09/20 09:33:20;;;;;;;2.38;1.50;;;;;;;20.73;77.38;99931.78;5072728;28;20044;-64
2023/09/20 09:35:47;;;;;;;3.70;1.70;;;;;;;21.02;76.27;99932.50;5073489;28;20043;-61
2023/09/20 09:38:19;;;;;;;2.30;1.50;;;;;;;21.13;73.65;99931.56;5073523;28;20039;-64
2023/09/20 09:40:56;;;;;;;3.17;1.65;;;;;;;21.48;69.04;99923.09;5073345;28;20058;-63
2023/09/20 09:43:23;;;;;;;2.28;1.65;;;;;;;21.82;68.51;99922.94;5072756;28;20040;-63
2023/09/20 09:45:49;;;;;;;2.03;1.30;;;;;;;22.20;63.19;99922.00;5073126;28;20391;-65
2023/09/20 09:48:16;;;;;;;4.68;1.30;;;;;;;22.40;62.55;99924.88;5073168;28;20033;-61
2023/09/20 09:50:45;;;;;;;3.03;1.38;;;;;;;22.78;60.23;99914.03;5072899;28;20039;-63
2023/09/20 09:53:12;;;;;;;1.98;1.33;;;;;;;23.27;61.07;99904.56;5072635;28;20043;-62
2023/09/20 09:55:38;;;;;;;2.28;1.30;;;;;;;23.89;55.07;99908.34;5073044;28;20655;-63
2023/09/20 09:58:04;;;;;;;1.98;1.33;;;;;;;24.26;54.24;99901.84;5073434;28;20103;-62
2023/09/20 10:00:33;;;;;;;2.78;1.27;;;;;;;24.85;56.58;99893.13;5073911;28;20093;-62
2023/09/20 10:03:07;;;;;;;1.60;1.13;;;;;;;25.40;52.29;99894.03;5073535;28;20024;-62
2023/09/20 10:05:33;;;;;;;2.17;1.20;;;;;;;25.66;48.55;99890.09;5071775;28;20036;-62
2023/09/20 10:08:01;;;;;;;2.28;1.02;;;;;;;26.10;48.87;99885.75;5073705;28;20029;-61
2023/09/20 10:10:27;;;;;;;2.17;1.25;;;;;;;26.46;49.91;99883.56;5073724;28;20039;-64
2023/09/20 10:12:53;;;;;;;3.03;1.20;;;;;;;26.94;49.45;99886.38;5073332;28;20029;-62
2023/09/20 10:15:19;;;;;;;3.08;1.13;;;;;;;27.20;45.46;99873.25;5073505;28;20060;-63
2023/09/20 10:17:50;;;;;;;2.78;1.00;;;;;;;27.29;46.32;99872.31;5073322;28;20498;-62
2023/09/20 10:20:16;;;;;;;2.95;1.35;;;;;;;27.56;43.46;99873.59;5073194;28;20491;-62
2023/09/20 10:22:45;;;;;;;1.75;1.17;;;;;;;27.92;42.85;99870.38;5073287;28;20492;-63
2023/09/20 10:25:34;;;;;;;2.40;1.10;;;;;;;28.28;41.71;99870.59;5073642;28;20040;-62
2023/09/20 10:28:09;;;;;;;2.65;1.10;;;;;;;28.35;43.18;99869.13;5073694;28;20449;-63
2023/09/20 10:30:55;;;;;;;2.47;1.02;;;;;;;28.71;40.59;99860.28;5073544;28;20044;-62
2023/09/20 10:33:51;;;;;;;1.55;1.10;;;;;;;28.71;39.73;99859.47;5073371;28;20043;-62
2023/09/20 10:36:27;;;;;;;1.10;0.95;;;;;;;28.84;39.48;99859.50;5073461;28;20467;-63
2023/09/20 10:39:17;;;;;;;2.05;1.13;;;;;;;28.92;39.25;99853.31;5073513;28;20040;-63
2023/09/20 10:41:46;;;;;;;1.90;1.00;;;;;;;29.09;39.67;99843.69;5073352;28;20036;-62
2023/09/20 10:44:29;;;;;;;1.73;1.02;;;;;;;29.31;39.03;99848.44;5073364;28;20484;-63
2023/09/20 10:46:58;;;;;;;2.97;1.00;;;;;;;28.90;37.67;99835.53;5072754;28;20032;-63
2023/09/20 10:49:47;;;;;;;1.77;1.02;;;;;;;30.00;36.21;99836.16;5070328;28;20029;-63
2023/09/20 10:52:32;;;;;;;1.55;0.95;;;;;;;29.94;35.08;99831.09;5071258;28;20066;-63
2023/09/20 10:55:24;;;;;;;1.88;1.10;;;;;;;29.91;35.00;99826.22;5071692;28;20027;-63
2023/09/20 10:57:50;;;;;;;1.90;1.10;;;;;;;29.52;35.54;99819.44;5064304;28;20417;-64
2023/09/20 11:00:30;;;;;;;2.13;1.00;;;;;;;29.80;35.44;99817.44;5073005;28;20036;-64
2023/09/20 11:02:56;;;;;;;1.90;1.10;;;;;;;29.56;36.17;99817.72;5072607;28;20279;-63
2023/09/20 11:05:26;;;;;;;1.80;0.97;;;;;;;29.80;35.80;99803.72;5072904;28;20071;-63
2023/09/20 11:07:53;;;;;;;2.50;1.15;;;;;;;30.31;36.47;99793.38;5072848;28;20068;-63
2023/09/20 11:10:19;;;;;;;1.70;1.10;;;;;;;30.14;35.10;99799.59;5072894;28;20052;-63
2023/09/20 11:12:44;;;;;;;2.97;1.20;;;;;;;30.71;35.03;99799.72;5072450;28;20085;-64
2023/09/20 11:15:10;;;;;;;2.08;1.08;;;;;;;31.27;35.11;99789.88;5072711;28;20041;-63
2023/09/20 11:17:36;;;;;;;2.78;1.23;;;;;;;31.31;33.59;99793.63;5072760;28;20066;-64
2023/09/20 11:20:04;;;;;;;1.15;0.90;;;;;;;31.42;33.47;99792.13;5072686;28;20117;-63
2023/09/20 11:22:34;;;;;;;5.53;2.08;;;;;;;31.55;34.25;99782.91;5072167;28;20031;-62
2023/09/20 11:25:00;;;;;;;1.92;1.42;;;;;;;31.88;33.40;99782.44;5072483;28;20078;-62
2023/09/20 11:27:27;;;;;;;1.05;0.90;;;;;;;31.24;33.35;99785.84;5072319;28;20093;-63
2023/09/20 11:29:53;;;;;;;1.95;0.95;;;;;;;31.33;33.38;99788.59;5072108;28;20441;-63
2023/09/20 11:32:22;;;;;;;2.22;1.10;;;;;;;31.33;33.84;99783.09;5071934;28;20036;-63
2023/09/20 11:34:51;;;;;;;2.78;1.50;;;;;;;31.68;32.73;99777.56;5072245;28;20040;-63
2023/09/20 11:37:19;;;;;;;1.13;0.95;;;;;;;31.90;31.64;99782.94;5072211;28;20471;-63
2023/09/20 11:39:46;;;;;;;2.13;0.93;;;;;;;31.46;31.85;99771.13;5072276;28;20060;-63
2023/09/20 11:42:22;;;;;;;1.85;0.80;;;;;;;32.08;31.25;99770.75;5072225;28;20020;-63
2023/09/20 11:44:55;;;;;;;3.67;1.20;;;;;;;31.57;31.54;99771.59;5072317;28;20410;-63
2023/09/20 11:47:20;;;;;;;1.30;1.05;;;;;;;32.23;30.98;99763.09;5072074;28;20036;-63
2023/09/20 11:49:47;;;;;;;2.03;0.97;;;;;;;32.11;30.84;99759.06;5072170;28;20020;-63
2023/09/20 11:52:17;;;;;;;2.33;1.20;;;;;;;32.73;29.36;99756.88;5072056;28;20037;-62
2023/09/20 11:54:43;;;;;;;2.47;0.98;;;;;;;32.07;30.30;99751.78;5072150;28;20475;-62
2023/09/20 11:57:16;;;;;;;3.08;1.30;;;;;;;32.45;29.60;99740.81;5072023;28;20045;-63
2023/09/20 11:59:43;;;;;;;2.08;1.00;;;;;;;32.44;30.28;99733.69;5072016;28;20032;-62
2023/09/20 12:02:09;;;;;;;;;;;;;;;32.24;29.50;99728.88;5071961;28;20041;-62
2023/09/20 12:04:35;;;;;;;2.03;1.10;;;;;;;32.51;29.39;99717.44;5071442;28;19981;-62
2023/09/20 12:07:01;;;;;;;2.42;1.00;;;;;;;32.68;28.78;99717.34;5071506;28;20036;-62
2023/09/20 12:09:27;;;;;;;1.90;1.10;;;;;;;32.03;29.28;99709.53;5071600;28;20044;-63
2023/09/20 12:11:53;;;;;;;2.03;1.10;;;;;;;32.72;29.55;99716.69;5071422;28;20028;-63
2023/09/20 12:14:18;;;;;;;2.30;1.13;;;;;;;32.93;29.90;99709.28;5071251;28;20499;-64
2023/09/20 12:16:47;;;;;;;2.23;1.00;;;;;;;33.61;29.46;99714.59;5071361;28;20071;-63
2023/09/20 12:19:15;;;;;;;1.80;1.05;;;;;;;33.03;28.95;99710.81;5071474;28;20067;-63
2023/09/20 12:21:40;;;;;;;2.08;1.20;;;;;;;33.31;29.08;99705.56;5068751;28;20074;-61
2023/09/20 12:24:06;;;;;;;2.30;1.10;;;;;;;32.88;29.13;99710.28;5071218;28;20032;-62
2023/09/20 12:26:33;;;;;;;1.80;1.00;;;;;;;33.30;27.94;99699.25;5071197;28;20491;-62
2023/09/20 12:28:58;;;;;;;1.45;1.02;;;;;;;33.57;28.53;99697.88;5053599;28;20043;-63
2023/09/20 12:31:24;;;;;;;1.20;1.03;;;;;;;32.90;29.27;99685.94;5071348;28;20040;-62
2023/09/20 12:33:52;;;;;;;2.50;1.33;;;;;;;33.69;27.79;99683.31;5071052;28;20085;-63
2023/09/20 12:36:18;;;;;;;2.05;1.58;;;;;;;33.36;28.37;99675.00;5071447;28;20514;-63
2023/09/20 12:38:44;;;;;;;2.17;1.30;;;;;;;33.99;28.10;99662.69;5071710;28;20060;-63
2023/09/20 12:41:10;;;;;;;1.20;1.00;;;;;;;33.81;27.21;99658.47;5071539;28;20391;-63
2023/09/20 12:43:38;;;;;;;1.98;1.40;;;;;;;33.89;27.23;99660.34;5073908;28;20047;-63
2023/09/20 12:46:04;;;;;;;2.40;1.30;;;;;;;33.60;27.40;99661.31;5075698;28;20051;-63
2023/09/20 12:48:30;;;;;;;1.90;1.30;;;;;;;33.78;28.08;99655.59;5075506;28;20181;-62
2023/09/20 12:50:56;;;;;;;2.63;1.40;;;;;;;33.22;28.54;99658.75;5075523;28;20454;-63
2023/09/20 12:53:23;;;;;;;2.47;1.30;;;;;;;33.54;28.38;99657.16;5075278;28;20047;-63
2023/09/20 12:55:49;;;;;;;1.95;1.20;;;;;;;33.87;27.93;99643.31;5075261;28;20036;-63
2023/09/20 12:58:16;;;;;;;3.93;1.57;;;;;;;34.07;27.95;99635.31;5075328;28;20048;-64
2023/09/20 13:00:42;;;;;;;4.40;1.13;;;;;;;33.97;27.56;99634.63;5075215;28;20037;-63
2023/09/20 13:03:08;;;;;;;1.80;1.30;;;;;;;34.72;27.67;99630.66;5075167;28;20086;-63
2023/09/20 13:05:35;;;;;;;1.58;1.10;;;;;;;34.21;27.47;99624.69;5075120;28;20040;-63
2023/09/20 13:08:00;;;;;;;2.10;1.33;;;;;;;34.46;27.04;99620.78;5075171;28;20105;-63
2023/09/20 13:10:26;;;;;;;1.90;1.50;;;;;;;34.39;26.75;99617.78;5074992;28;20044;-63
2023/09/20 13:12:52;;;;;;;1.52;1.15;;;;;;;33.93;27.56;99616.31;5074880;28;20037;-63
2023/09/20 13:15:19;;;;;;;2.40;1.02;;;;;;;34.30;27.68;99614.34;5074959;28;20047;-63
2023/09/20 13:17:47;;;;;;;2.35;1.27;;;;;;;34.06;27.17;99615.16;5074633;28;20047;-63
2023/09/20 13:20:13;;;;;;;2.53;1.05;;;;;;;33.23;28.57;99613.44;5074754;28;20042;-63
2023/09/20 13:22:42;;;;;;;2.50;1.40;;;;;;;33.48;28.49;99604.13;5074614;28;20036;-63
2023/09/20 13:25:09;;;;;;;2.95;1.50;;;;;;;33.92;27.14;99600.88;5074565;28;20040;-62
2023/09/20 13:27:38;;;;;;;;;;;;;;;33.97;26.55;99607.00;5075212;28;20455;-63
2023/09/20 13:30:09;;;;;;;1.88;1.27;;;;;;;33.79;27.40;99589.00;5074728;28;19955;-62
2023/09/20 13:32:35;;;;;;;1.85;1.52;;;;;;;34.53;26.66;99589.78;5074539;28;20403;-63
2023/09/20 13:35:02;;;;;;;2.42;1.13;;;;;;;34.42;26.79;99589.47;5074733;28;20064;-63
2023/09/20 13:37:28;;;;;;;2.15;1.27;;;;;;;33.63;27.08;99580.56;5074566;28;20059;-63
2023/09/20 13:39:54;;;;;;;2.97;1.83;;;;;;;34.34;27.27;99575.75;5074554;28;20494;-63
2023/09/20 13:42:20;;;;;;;1.52;1.08;;;;;;;34.49;27.35;99577.81;5074368;28;20024;-64
2023/09/20 13:44:50;;;;;;;2.33;1.30;;;;;;;35.08;26.19;99578.00;5074523;28;20123;-63
2023/09/20 13:47:16;;;;;;;1.98;1.20;;;;;;;35.29;26.26;99566.69;5074310;28;20179;-64
2023/09/20 13:49:41;;;;;;;2.00;1.20;;;;;;;34.65;26.37;99558.56;5074440;28;20032;-63
2023/09/20 13:52:08;;;;;;;2.57;1.40;;;;;;;34.77;26.72;99561.28;5074257;28;20556;-64
2023/09/20 13:54:33;;;;;;;;;;;;;;;34.92;26.54;99551.44;5073981;28;20054;-64
2023/09/20 13:56:59;;;;;;;1.80;1.30;;;;;;;34.99;28.07;99546.91;5074452;28;20010;-64
2023/09/20 13:59:25;;;;;;;3.33;1.40;;;;;;;34.59;26.01;99546.94;5106865;28;20068;-63
2023/09/20 14:01:53;;;;;;;2.03;1.50;;;;;;;33.96;27.35;99539.06;5074420;28;20423;-63
2023/09/20 14:04:18;;;;;;;2.33;1.35;;;;;;;32.67;28.51;99541.28;5073880;28;20045;-63
2023/09/20 14:06:45;;;;;;;2.70;1.33;;;;;;;31.94;29.42;99538.81;5073947;28;20074;-64
2023/09/20 14:09:13;;;;;;;2.13;1.35;;;;;;;31.17;31.09;99535.19;5073867;28;20445;-63
2023/09/20 14:11:41;;;;;;;2.17;1.48;;;;;;;30.61;31.52;99533.44;5073823;28;20029;-62
2023/09/20 14:14:06;;;;;;;2.63;1.30;;;;;;;29.78;32.38;99526.00;5073571;28;20040;-62
2023/09/20 14:16:34;;;;;;;1.70;1.30;;;;;;;29.16;33.59;99520.53;5074113;28;20039;-62
2023/09/20 14:18:59;;;;;;;2.33;1.30;;;;;;;28.89;34.48;99518.72;5073873;28;20032;-63
2023/09/20 14:21:25;;;;;;;3.08;1.58;;;;;;;28.73;35.36;99523.75;5073652;28;20399;-64
2023/09/20 14:23:50;;;;;;;2.08;1.42;;;;;;;28.46;36.03;99519.19;5072222;28;20090;-63
2023/09/20 14:26:15;;;;;;;2.78;1.70;;;;;;;28.60;35.27;99513.66;5073644;28;20411;-63
2023/09/20 14:28:42;;;;;;;2.15;1.50;;;;;;;28.58;35.45;99504.97;5073701;28;20045;-63
2023/09/20 14:31:15;;;;;;;2.53;1.30;;;;;;;28.09;37.80;99510.13;5073579;28;20032;-62
2023/09/20 14:33:41;;;;;;;3.13;1.45;;;;;;;27.84;37.49;99505.19;5073242;28;20029;-63
2023/09/20 14:36:09;;;;;;;1.58;1.27;;;;;;;28.06;37.16;99508.00;5073381;28;20526;-63
2023/09/20 14:38:34;;;;;;;2.83;1.50;;;;;;;27.87;37.52;99506.50;5073456;28;20494;-63
2023/09/20 14:41:01;;;;;;;1.73;1.40;;;;;;;27.88;37.31;99505.41;5073325;28;20111;-63
2023/09/20 14:43:27;;;;;;;;;;;;;;;27.90;37.04;99498.50;5073654;28;20398;-62
2023/09/20 14:45:53;;;;;;;2.03;1.30;;;;;;;27.81;36.44;99497.59;5073253;28;19916;-63
2023/09/20 14:48:19;;;;;;;2.33;1.88;;;;;;;27.81;36.64;99495.66;5073194;28;20128;-63
2023/09/20 14:50:44;;;;;;;3.53;1.48;;;;;;;27.59;36.88;99484.63;5073220;28;20111;-63
2023/09/20 14:53:09;;;;;;;2.88;1.23;;;;;;;27.50;37.12;99480.94;5072657;28;20446;-62
2023/09/20 14:55:35;;;;;;;1.80;1.30;;;;;;;27.38;38.30;99491.56;5072878;28;20047;-62
2023/09/20 14:58:01;;;;;;;1.50;1.02;;;;;;;27.29;38.59;99475.06;5072968;28;20053;-62
2023/09/20 15:00:29;;;;;;;1.50;1.20;;;;;;;27.29;38.67;99481.34;5072934;28;20041;-63
2023/09/20 15:02:56;;;;;;;3.50;1.27;;;;;;;27.25;39.38;99477.59;5072582;28;20036;-61
2023/09/20 15:05:23;;;;;;;1.85;1.33;;;;;;;27.36;39.35;99471.94;5071901;28;20063;-61
2023/09/20 15:07:53;;;;;;;;;;;;;;;27.14;38.07;99461.69;5073338;28;20104;-63
2023/09/20 15:10:20;;;;;;;2.42;1.25;;;;;;;27.16;38.65;99456.72;5072711;28;19912;-62
2023/09/20 15:12:57;;;;;;;2.20;1.30;;;;;;;27.09;39.44;99448.13;5072676;28;20117;-63
2023/09/20 15:15:30;;;;;;;2.65;1.20;;;;;;;26.97;40.14;99446.66;5072591;28;20534;-62
2023/09/20 15:17:56;;;;;;;2.22;1.20;;;;;;;26.99;40.09;99438.13;5072938;28;20483;-62
2023/09/20 15:20:22;;;;;;;2.35;1.38;;;;;;;26.98;39.85;99437.34;5072475;28;20064;-63
2023/09/20 15:22:48;;;;;;;2.28;1.13;;;;;;;26.91;40.21;99441.56;5072221;28;20138;-62
2023/09/20 15:25:14;;;;;;;1.35;1.23;;;;;;;27.01;40.73;99441.41;5072436;28;20040;-62
2023/09/20 15:27:40;;;;;;;2.95;1.60;;;;;;;26.94;40.58;99430.88;5072498;28;20054;-62
2023/09/20 15:30:09;;;;;;;2.20;1.33;;;;;;;26.78;40.55;99432.25;5072397;28;20059;-62
2023/09/20 15:32:35;;;;;;;2.17;1.50;;;;;;;26.69;39.83;99423.94;5072192;28;20215;-63
2023/09/20 15:35:00;;;;;;;1.88;1.17;;;;;;;26.68;40.11;99416.84;5072248;28;20036;-61
2023/09/20 15:37:28;;;;;;;5.70;1.70;;;;;;;26.63;40.63;99419.66;5072222;28;20093;-62
2023/09/20 15:39:54;;;;;;;2.00;1.27;;;;;;;26.56;41.87;99418.44;5072396;28;20438;-62
2023/09/20 15:42:20;;;;;;;2.40;1.50;;;;;;;26.51;41.08;99427.50;5071920;28;20033;-63
2023/09/20 15:44:49;;;;;;;3.00;1.27;;;;;;;26.42;40.08;99408.28;5072294;28;20395;-62
2023/09/20 15:47:15;;;;;;;2.22;1.42;;;;;;;26.40;40.54;99405.00;5072361;28;20468;-62
2023/09/20 15:49:41;;;;;;;2.28;1.17;;;;;;;26.37;40.59;99411.03;5072179;28;20040;-62
2023/09/20 15:52:07;;;;;;;3.42;1.27;;;;;;;26.37;40.17;99400.13;5072061;28;20039;-62
2023/09/20 15:54:33;;;;;;;1.98;1.42;;;;;;;26.36;40.73;99400.44;5071935;28;20051;-63
2023/09/20 15:56:59;;;;;;;3.33;1.40;;;;;;;26.35;41.14;99401.53;5072003;28;20040;-61
2023/09/20 15:59:24;;;;;;;3.22;1.40;;;;;;;26.28;41.67;99401.09;5072033;28;20040;-62
2023/09/20 16:01:50;;;;;;;1.55;1.30;;;;;;;26.20;42.09;99400.66;5071960;28;20076;-63
2023/09/20 16:04:15;;;;;;;2.53;1.30;;;;;;;26.16;42.36;99394.19;5071827;28;20065;-62
2023/09/20 16:06:44;;;;;;;3.03;1.77;;;;;;;26.06;41.90;99398.97;5071975;28;20043;-62
2023/09/20 16:09:09;;;;;;;2.97;1.80;;;;;;;26.06;41.99;99394.31;5072044;28;20115;-62
2023/09/20 16:11:35;;;;;;;5.15;1.42;;;;;;;26.06;41.55;99394.31;5071920;28;20487;-63
2023/09/20 16:14:01;;;;;;;1.80;1.30;;;;;;;25.97;42.13;99394.19;5071584;28;20044;-63
2023/09/20 16:16:26;;;;;;;2.20;1.50;;;;;;;25.95;41.84;99395.56;5071704;28;20036;-63
2023/09/20 16:18:52;;;;;;;2.08;1.20;;;;;;;25.90;41.75;99395.69;5071897;28;20040;-63
2023/09/20 16:21:17;;;;;;;1.80;1.40;;;;;;;25.77;42.72;99399.94;5071680;28;20047;-63
2023/09/20 16:23:45;;;;;;;2.63;1.50;;;;;;;25.76;42.83;99390.16;5071659;28;20028;-62
2023/09/20 16:26:11;;;;;;;2.20;1.40;;;;;;;25.70;43.62;99381.19;5071773;28;20036;-62
2023/09/20 16:28:37;;;;;;;3.15;1.50;;;;;;;25.71;43.96;99385.53;5071716;28;20047;-62
2023/09/20 16:31:02;;;;;;;2.70;1.20;;;;;;;25.68;43.91;99388.84;5071744;28;20040;-62
2023/09/20 16:33:28;;;;;;;2.10;1.40;;;;;;;25.58;44.17;99383.53;5071435;28;20036;-62
2023/09/20 16:35:53;;;;;;;2.75;1.52;;;;;;;25.47;43.84;99376.56;5071789;28;20111;-60